RUK5DM EGSS-EGPH
Flight info
| Callsign | RUK5DM |
|---|---|
| Flight time | N/A |
| Altitude | 32000 |
| Route | UTAVA Q75 BUZAD T420 TNT UN57 POL UN601 RIBEL DCT INPIP |
| Aircraft | B738/M-SDE3FGILRWY/SB1 |
Departure
| Time | 2026-05-04 21:11 |
|---|---|
| Airport | London Stansted Airport (EGSS) |
Arrival
| Time | N/A |
|---|---|
| Airport | Edinburgh Airport (EGPH) |
| Time | Latitude | Longitude | Altitude | Speed | Heading |
|---|---|---|---|---|---|
| 2026-05-04 20:28 | 51.89190 | 0.26052 | 358 ft | 0 kts | 43° |
| 2026-05-04 20:56 | 51.89184 | 0.26043 | 357 ft | 4 kts | 43° |
| 2026-05-04 20:57 | 51.89168 | 0.26020 | 361 ft | 4 kts | 46° |
| 2026-05-04 20:57 | 51.89156 | 0.25985 | 357 ft | 4 kts | 87° |
| 2026-05-04 20:57 | 51.89158 | 0.25945 | 358 ft | 4 kts | 87° |
| 2026-05-04 20:57 | 51.89152 | 0.25915 | 355 ft | 4 kts | 13° |
| 2026-05-04 20:58 | 51.89135 | 0.25926 | 359 ft | 4 kts | 313° |
| 2026-05-04 20:58 | 51.89126 | 0.25941 | 356 ft | 0 kts | 313° |
| 2026-05-04 21:01 | 51.89140 | 0.25917 | 353 ft | 6 kts | 313° |
| 2026-05-04 21:01 | 51.89168 | 0.25870 | 355 ft | 6 kts | 313° |
| 2026-05-04 21:01 | 51.89198 | 0.25818 | 355 ft | 8 kts | 313° |
| 2026-05-04 21:01 | 51.89260 | 0.25712 | 355 ft | 17 kts | 313° |
| 2026-05-04 21:02 | 51.89336 | 0.25560 | 359 ft | 17 kts | 282° |
| 2026-05-04 21:02 | 51.89266 | 0.25412 | 351 ft | 17 kts | 223° |
| 2026-05-04 21:02 | 51.89183 | 0.25287 | 354 ft | 16 kts | 223° |
| 2026-05-04 21:02 | 51.89096 | 0.25156 | 354 ft | 19 kts | 222° |
| 2026-05-04 21:03 | 51.88989 | 0.24996 | 356 ft | 23 kts | 223° |
| 2026-05-04 21:03 | 51.88854 | 0.24795 | 351 ft | 26 kts | 223° |
| 2026-05-04 21:03 | 51.88717 | 0.24589 | 347 ft | 29 kts | 223° |
| 2026-05-04 21:03 | 51.88571 | 0.24370 | 346 ft | 28 kts | 223° |
| 2026-05-04 21:04 | 51.88434 | 0.24162 | 347 ft | 26 kts | 222° |
| 2026-05-04 21:04 | 51.88305 | 0.23970 | 349 ft | 24 kts | 223° |
| 2026-05-04 21:04 | 51.88184 | 0.23787 | 336 ft | 24 kts | 223° |
| 2026-05-04 21:04 | 51.88062 | 0.23607 | 338 ft | 25 kts | 223° |
| 2026-05-04 21:05 | 51.87930 | 0.23408 | 338 ft | 26 kts | 223° |
| 2026-05-04 21:05 | 51.87801 | 0.23216 | 340 ft | 24 kts | 223° |
| 2026-05-04 21:05 | 51.87732 | 0.23050 | 339 ft | 15 kts | 285° |
| 2026-05-04 21:05 | 51.87793 | 0.22927 | 337 ft | 11 kts | 313° |
| 2026-05-04 21:06 | 51.87820 | 0.22880 | 336 ft | 2 kts | 313° |
| 2026-05-04 21:06 | 51.87826 | 0.22870 | 336 ft | 0 kts | 313° |
| 2026-05-04 21:07 | 51.87827 | 0.22869 | 336 ft | 1 kts | 313° |
| 2026-05-04 21:07 | 51.87841 | 0.22845 | 336 ft | 5 kts | 313° |
| 2026-05-04 21:08 | 51.87865 | 0.22802 | 332 ft | 1 kts | 312° |
| 2026-05-04 21:08 | 51.87875 | 0.22784 | 332 ft | 3 kts | 312° |
| 2026-05-04 21:08 | 51.87895 | 0.22749 | 331 ft | 5 kts | 312° |
| 2026-05-04 21:08 | 51.87921 | 0.22702 | 332 ft | 7 kts | 313° |
| 2026-05-04 21:09 | 51.87976 | 0.22696 | 331 ft | 11 kts | 34° |
| 2026-05-04 21:09 | 51.88002 | 0.22733 | 328 ft | 0 kts | 43° |
| 2026-05-04 21:09 | 51.88003 | 0.22733 | 328 ft | 0 kts | 43° |
| 2026-05-04 21:10 | 51.88005 | 0.22736 | 329 ft | 2 kts | 43° |
| 2026-05-04 21:10 | 51.88057 | 0.22814 | 331 ft | 17 kts | 43° |
| 2026-05-04 21:10 | 51.88262 | 0.23120 | 334 ft | 75 kts | 42° |
| 2026-05-04 21:11 | 51.88809 | 0.23940 | 339 ft | 140 kts | 43° |
| 2026-05-04 21:11 | 51.89622 | 0.25164 | 654 ft | 166 kts | 42° |
| 2026-05-04 21:11 | 51.90488 | 0.26512 | 1284 ft | 186 kts | 42° |
| 2026-05-04 21:11 | 51.91488 | 0.28014 | 1774 ft | 203 kts | 43° |
| 2026-05-04 21:12 | 51.92589 | 0.29353 | 2173 ft | 197 kts | 21° |
| 2026-05-04 21:12 | 51.93923 | 0.29717 | 2651 ft | 196 kts | 357° |
| 2026-05-04 21:12 | 51.95252 | 0.29134 | 3117 ft | 202 kts | 331° |
| 2026-05-04 21:12 | 51.96297 | 0.27614 | 3561 ft | 206 kts | 306° |
| 2026-05-04 21:13 | 51.96890 | 0.25426 | 3948 ft | 220 kts | 285° |
| 2026-05-04 21:13 | 51.97199 | 0.22908 | 4361 ft | 235 kts | 280° |
| 2026-05-04 21:13 | 51.97486 | 0.20201 | 4796 ft | 251 kts | 279° |
| 2026-05-04 21:13 | 51.97776 | 0.17369 | 5190 ft | 257 kts | 280° |
| 2026-05-04 21:14 | 51.98080 | 0.14491 | 5580 ft | 262 kts | 280° |
| 2026-05-04 21:14 | 51.98394 | 0.11569 | 5967 ft | 264 kts | 280° |
| 2026-05-04 21:14 | 51.98712 | 0.08646 | 6348 ft | 263 kts | 280° |
| 2026-05-04 21:14 | 51.98973 | 0.05710 | 6703 ft | 264 kts | 271° |